Time,TemperatureF,DewpointF,PressureIn,WindDirection,WindDirectionDegrees,WindSpeedMPH,WindSpeedGustMPH,Humidity,HourlyPrecipIn,Conditions,Clouds,dailyrainin,SolarRadiationWatts/m^2,SoftwareType,DateUTC
2013-01-01 01:00:00,28.0,20.0,30.08,WNW,290,11.0,-999.0,73,-99.99,,,-99.99,0.010000,,2013-01-01 08:00:00,
2013-01-01 01:53:00,28.0,20.0,30.08,WNW,290,11.0,-999.0,73,-99.99,,,-99.99,0.010000,,2013-01-01 08:53:00,
2013-01-01 02:00:00,26.0,19.0,30.09,WNW,287,10.0,-999.0,74,-99.99,,,-99.99,0.020000,,2013-01-01 09:00:00,
2013-01-01 02:52:00,26.0,19.0,30.09,WNW,287,10.0,-999.0,74,-99.99,,,-99.99,0.020000,,2013-01-01 09:52:00,
2013-01-01 03:00:00,28.0,20.0,30.09,West,280,8.0,-999.0,73,-99.99,,,-99.99,0.000000,,2013-01-01 10:00:00,
2013-01-01 03:53:00,28.0,20.0,30.09,West,280,8.0,-999.0,73,-99.99,,,-99.99,0.000000,,2013-01-01 10:53:00,
2013-01-01 04:00:00,28.0,21.0,30.09,West,269,5.0,-999.0,72,-99.99,,,-99.99,0.010000,,2013-01-01 11:00:00,
2013-01-01 04:53:00,28.0,21.0,30.09,West,269,5.0,-999.0,72,-99.99,,,-99.99,0.010000,,2013-01-01 11:53:00,
2013-01-01 05:00:00,26.0,19.0,30.07,SW,216,4.0,-999.0,74,-99.99,,,-99.99,0.020000,,2013-01-01 12:00:00,
2013-01-01 05:53:00,26.0,19.0,30.07,SW,216,4.0,-999.0,74,-99.99,,,-99.99,0.020000,,2013-01-01 12:53:00,
2013-01-01 06:00:00,27.0,20.0,30.05,SSW,213,5.0,-999.0,76,-99.99,,,-99.99,0.010000,,2013-01-01 13:00:00,
2013-01-01 06:53:00,27.0,20.0,30.05,SSW,213,5.0,-999.0,76,-99.99,,,-99.99,0.010000,,2013-01-01 13:53:00,
2013-01-01 07:00:00,29.0,21.0,30.05,SW,225,7.0,-999.0,73,-99.99,,,-99.99,0.010000,,2013-01-01 14:00:00,
2013-01-01 07:53:00,29.0,21.0,30.05,SW,225,7.0,-999.0,73,-99.99,,,-99.99,0.010000,,2013-01-01 14:53:00,
2013-01-01 08:00:00,30.0,23.0,30.05,SW,230,7.0,-999.0,75,-99.99,,,-99.99,0.340000,,2013-01-01 15:00:00,
2013-01-01 08:53:00,30.0,23.0,30.05,SW,230,7.0,-999.0,75,-99.99,,,-99.99,0.340000,,2013-01-01 15:53:00,
2013-01-01 09:00:00,32.0,23.0,30.06,WSW,255,9.0,-999.0,69,-99.99,,,-99.99,28.570000,,2013-01-01 16:00:00,
2013-01-01 09:53:00,32.0,23.0,30.06,WSW,255,9.0,-999.0,69,-99.99,,,-99.99,28.570000,,2013-01-01 16:53:00,
2013-01-01 10:00:00,33.0,22.0,30.09,West,271,10.0,-999.0,63,-99.99,,,-99.99,43.299999,,2013-01-01 17:00:00,
2013-01-01 10:53:00,33.0,22.0,30.09,West,271,10.0,-999.0,63,-99.99,,,-99.99,43.299999,,2013-01-01 17:53:00,
2013-01-01 11:00:00,29.0,20.0,30.14,NW,308,26.0,-999.0,69,-99.99,,,-99.99,83.199997,,2013-01-01 18:00:00,
2013-01-01 11:53:00,29.0,20.0,30.14,NW,308,26.0,-999.0,69,-99.99,,,-99.99,83.199997,,2013-01-01 18:53:00,
2013-01-01 12:00:00,25.0,24.0,30.16,NW,309,25.0,-999.0,95,-99.99,,,-99.99,125.300003,,2013-01-01 19:00:00,
2013-01-01 12:52:00,25.0,24.0,30.16,NW,309,25.0,-999.0,95,-99.99,,,-99.99,125.300003,,2013-01-01 19:52:00,
2013-01-01 13:00:00,25.0,24.0,30.15,WNW,299,19.0,-999.0,93,-99.99,,,-99.99,147.300003,,2013-01-01 20:00:00,
2013-01-01 13:53:00,25.0,24.0,30.15,WNW,299,19.0,-999.0,93,-99.99,,,-99.99,147.300003,,2013-01-01 20:53:00,
2013-01-01 14:00:00,27.0,21.0,30.17,WNW,290,18.0,-999.0,78,-99.99,,,-99.99,189.500000,,2013-01-01 21:00:00,
2013-01-01 14:53:00,27.0,21.0,30.17,WNW,290,18.0,-999.0,78,-99.99,,,-99.99,189.500000,,2013-01-01 21:53:00,
2013-01-01 15:00:00,26.0,21.0,30.17,WNW,294,22.0,-999.0,81,-99.99,,,-99.99,208.000000,,2013-01-01 22:00:00,
2013-01-01 15:52:00,26.0,21.0,30.17,WNW,294,22.0,-999.0,81,-99.99,,,-99.99,208.000000,,2013-01-01 22:52:00,
2013-01-01 16:00:00,26.0,19.0,30.19,WNW,294,22.0,-999.0,76,-99.99,,,-99.99,111.300003,,2013-01-01 23:00:00,
2013-01-01 16:53:00,26.0,19.0,30.19,WNW,294,22.0,-999.0,76,-99.99,,,-99.99,111.300003,,2013-01-01 23:53:00,
2013-01-01 17:00:00,25.0,18.0,30.22,WNW,296,21.0,-999.0,72,-99.99,,,-99.99,15.920000,,2013-01-02 00:00:00,
2013-01-01 17:52:00,25.0,18.0,30.22,WNW,296,21.0,-999.0,72,-99.99,,,-99.99,15.920000,,2013-01-02 00:52:00,
2013-01-01 18:00:00,25.0,17.0,30.23,WNW,298,17.0,-999.0,71,-99.99,,,-99.99,0.110000,,2013-01-02 01:00:00,
2013-01-01 18:52:00,25.0,17.0,30.23,WNW,298,17.0,-999.0,71,-99.99,,,-99.99,0.110000,,2013-01-02 01:52:00,
2013-01-01 19:00:00,24.0,16.0,30.23,West,278,13.0,-999.0,71,-99.99,,,-99.99,0.000000,,2013-01-02 02:00:00,
2013-01-01 19:53:00,24.0,16.0,30.23,West,278,13.0,-999.0,71,-99.99,,,-99.99,0.000000,,2013-01-02 02:53:00,
2013-01-01 20:00:00,22.0,14.0,30.23,WNW,290,10.0,-999.0,70,-99.99,,,-99.99,0.010000,,2013-01-02 03:00:00,
2013-01-01 20:53:00,22.0,14.0,30.23,WNW,290,10.0,-999.0,70,-99.99,,,-99.99,0.010000,,2013-01-02 03:53:00,
2013-01-01 21:00:00,22.0,15.0,30.23,WNW,302,11.0,-999.0,74,-99.99,,,-99.99,0.000000,,2013-01-02 04:00:00,
2013-01-01 21:52:00,22.0,15.0,30.23,WNW,302,11.0,-999.0,74,-99.99,,,-99.99,0.000000,,2013-01-02 04:52:00,
2013-01-01 22:00:00,16.0,12.0,30.24,WNW,291,11.0,-999.0,81,-99.99,,,-99.99,0.000000,,2013-01-02 05:00:00,
2013-01-01 22:53:00,16.0,12.0,30.24,WNW,291,11.0,-999.0,81,-99.99,,,-99.99,0.000000,,2013-01-02 05:53:00,
2013-01-01 23:00:00,16.0,10.0,30.23,West,276,9.0,-999.0,77,-99.99,,,-99.99,0.000000,,2013-01-02 06:00:00,
2013-01-01 23:53:00,16.0,10.0,30.23,West,276,9.0,-999.0,77,-99.99,,,-99.99,0.000000,,2013-01-02 06:53:00,